GMTN/TTU METAR and TAF weather

Enter ICAO airport designator
Station Type Date Time Source
GMTN METAR 2019/08/19 22:00 UTC NOAA

GMTN 192200Z 24016KT 210V270 CAVOK 26/12 Q1014 NOSIG


Station Type Date Time Source
GMTN Decoded METAR 2019/08/19 22:00 UTC NOAA

Tetuan / Sania Ramel, Morocco (GMTN) 35-35N 005-20W 10M
Aug 19, 2019 - 06:00 PM EDT / 2019.08.19 2200 UTC
Wind: from the WSW (240 degrees) at 18 MPH (16 KT) (direction variable):0
Visibility: greater than 7 mile(s):0
Temperature: 78 F (26 C)
Dew Point: 53 F (12 C)
Relative Humidity: 41%
Pressure (altimeter): 29.94 in. Hg (1014 hPa)
ob: GMTN 192200Z 24016KT 210V270 CAVOK 26/12 Q1014 NOSIG
cycle: 22

Station Type Date Time Source
GMTN TAF UTC NOAA

Error!

Example: see airport list